Terminal Aerodrome Forecast
Issued by NWS Brownsville, TX

Home | Current Version | Previous Version | Text Only | Print | Product List | Glossary On
Versions: 1 2 3 4 5 6 7 8 9 10 11 12 13 14 15 16 17 18 19 20 21 22 23 24 25
000
FTUS44 KBRO 200200 AAA
TAFBRO
TAF AMD
KBRO 200242Z 2003/2024 12008KT P6SM FEW035 OVC200
     FM200700 13008KT P6SM BKN025
      TEMPO 2010/2013 OVC015
     FM201600 13016G20KT P6SM OVC025
     FM201900 15016G24KT P6SM BKN035=

USA.gov is the U.S. government's official web portal to all federal, state and local government web resources and services.